createdAt,value
2022-09-06T00:02:21.372Z,3.90
2022-09-06T00:04:49.938Z,3.35
2022-09-06T00:07:17.959Z,3.40
2022-09-06T00:09:45.830Z,3.72
2022-09-06T00:12:13.697Z,3.70
2022-09-06T00:14:43.108Z,3.45
2022-09-06T00:17:11.539Z,2.95
2022-09-06T00:19:39.527Z,3.10
2022-09-06T00:22:07.958Z,3.60
2022-09-06T00:24:37.144Z,3.45
2022-09-06T00:27:05.479Z,3.45
2022-09-06T00:29:33.981Z,3.55
2022-09-06T00:32:04.469Z,3.38
2022-09-06T00:34:32.695Z,2.97
2022-09-06T00:37:00.618Z,3.60
2022-09-06T00:39:28.779Z,3.20
2022-09-06T00:41:56.652Z,3.00
2022-09-06T00:44:25.015Z,10.80
2022-09-06T00:46:55.340Z,4.15
2022-09-06T00:49:27.584Z,3.22
2022-09-06T00:51:59.966Z,2.95
2022-09-06T00:54:28.769Z,3.33
2022-09-06T00:56:58.552Z,2.47
2022-09-06T00:59:27.243Z,2.85
2022-09-06T01:01:55.740Z,2.78
2022-09-06T01:04:26.581Z,3.00
2022-09-06T01:07:07.150Z,3.00
2022-09-06T01:09:49.273Z,2.83
2022-09-06T01:12:31.118Z,3.53
2022-09-06T01:15:09.334Z,2.88
2022-09-06T01:17:52.173Z,2.78
2022-09-06T01:20:52.588Z,3.28
2022-09-06T01:23:53.251Z,3.55
2022-09-06T01:27:03.540Z,3.67
2022-09-06T01:29:37.816Z,2.97
2022-09-06T01:32:13.380Z,2.88
2022-09-06T01:34:45.339Z,2.70
2022-09-06T01:37:16.822Z,2.40
2022-09-06T01:39:44.778Z,2.30
2022-09-06T01:42:17.806Z,2.53
2022-09-06T01:44:53.236Z,2.05
2022-09-06T01:47:37.589Z,1.70
2022-09-06T01:50:21.008Z,1.75
2022-09-06T01:53:00.743Z,2.20
2022-09-06T01:55:33.713Z,1.88
2022-09-06T01:58:23.332Z,1.92
2022-09-06T02:01:01.375Z,1.80
2022-09-06T02:03:36.374Z,1.63
2022-09-06T02:06:08.907Z,1.83
2022-09-06T02:08:43.342Z,1.65
2022-09-06T02:11:14.418Z,1.60
2022-09-06T02:13:49.489Z,1.67
2022-09-06T02:16:23.031Z,1.80
2022-09-06T02:18:57.521Z,1.83
2022-09-06T02:21:31.249Z,1.48
2022-09-06T02:24:03.018Z,1.67
2022-09-06T02:26:35.705Z,1.88
2022-09-06T02:29:03.826Z,1.98
2022-09-06T02:31:36.049Z,1.50
2022-09-06T02:34:05.375Z,1.50
2022-09-06T02:36:33.884Z,1.38
2022-09-06T02:39:02.091Z,1.55
2022-09-06T02:41:34.386Z,1.63
2022-09-06T02:44:02.359Z,1.35
2022-09-06T02:46:30.865Z,1.55
2022-09-06T02:49:00.278Z,1.60
2022-09-06T02:51:28.263Z,1.70
2022-09-06T02:53:56.836Z,1.40
2022-09-06T02:56:24.910Z,1.00
2022-09-06T02:58:53.030Z,1.63
2022-09-06T03:01:20.983Z,1.77
2022-09-06T03:03:49.024Z,4.85
2022-09-06T03:06:18.409Z,2.83
2022-09-06T03:08:46.346Z,2.65
2022-09-06T03:11:14.501Z,2.95
2022-09-06T03:13:42.471Z,2.50
2022-09-06T03:16:10.505Z,2.60
2022-09-06T03:18:38.381Z,2.70
2022-09-06T03:21:06.958Z,2.25
2022-09-06T03:23:37.418Z,2.10
2022-09-06T03:26:05.365Z,2.17
2022-09-06T03:28:33.421Z,2.28
2022-09-06T03:31:01.463Z,2.00
2022-09-06T03:33:29.466Z,2.20
2022-09-06T03:35:59.434Z,2.10
2022-09-06T03:38:29.233Z,2.35
2022-09-06T03:40:59.188Z,2.13
2022-09-06T03:43:28.587Z,2.22
2022-09-06T03:45:58.184Z,2.22
2022-09-06T03:48:29.174Z,2.20
2022-09-06T03:50:58.661Z,2.50
2022-09-06T03:53:28.750Z,2.47
2022-09-06T03:55:59.206Z,2.25
2022-09-06T03:58:31.550Z,2.10
2022-09-06T04:01:05.636Z,2.30
2022-09-06T04:03:34.368Z,2.90
2022-09-06T04:06:02.273Z,2.35
2022-09-06T04:08:30.558Z,2.53
2022-09-06T04:11:00.618Z,2.67
2022-09-06T04:13:30.313Z,2.72
2022-09-06T04:15:58.814Z,2.25
2022-09-06T04:18:27.347Z,2.58
2022-09-06T04:20:57.008Z,3.28
2022-09-06T04:23:26.206Z,2.30
2022-09-06T04:25:55.917Z,2.45
2022-09-06T04:28:26.591Z,2.60
2022-09-06T04:30:55.452Z,2.83
2022-09-06T04:33:25.824Z,2.40
2022-09-06T04:35:54.763Z,3.08
2022-09-06T04:38:22.764Z,2.80
2022-09-06T04:40:51.236Z,3.30
2022-09-06T04:43:19.389Z,3.17
2022-09-06T04:45:48.938Z,2.80
2022-09-06T04:48:17.119Z,3.17
2022-09-06T04:50:45.126Z,3.17
2022-09-06T04:53:13.607Z,2.80
2022-09-06T04:55:41.565Z,3.13
2022-09-06T04:58:09.705Z,2.75
2022-09-06T05:00:38.905Z,2.85
2022-09-06T05:03:09.843Z,2.83
2022-09-06T05:05:37.710Z,3.22
2022-09-06T05:08:05.580Z,3.13
2022-09-06T05:10:33.535Z,3.35
2022-09-06T05:13:01.439Z,3.10
2022-09-06T05:15:29.473Z,3.38
2022-09-06T05:18:03.975Z,3.20
2022-09-06T05:20:33.718Z,3.33
2022-09-06T05:23:01.750Z,3.40
2022-09-06T05:25:30.025Z,3.30
2022-09-06T05:27:57.974Z,3.55
2022-09-06T05:30:25.923Z,2.90
2022-09-06T05:32:53.943Z,3.15
2022-09-06T05:35:21.922Z,2.97
2022-09-06T05:37:51.291Z,3.20
2022-09-06T05:40:19.472Z,3.28
2022-09-06T05:42:47.395Z,3.30
2022-09-06T05:45:15.658Z,3.65
2022-09-06T05:47:43.779Z,4.00
2022-09-06T05:50:12.586Z,3.95
2022-09-06T05:52:40.720Z,3.75
2022-09-06T05:55:11.097Z,3.75
2022-09-06T05:57:39.109Z,3.85
2022-09-06T06:00:08.180Z,4.00
2022-09-06T06:02:39.870Z,4.18
2022-09-06T06:05:08.730Z,3.90
2022-09-06T06:07:36.734Z,4.53
2022-09-06T06:10:05.514Z,4.38
2022-09-06T06:12:35.392Z,4.00
2022-09-06T06:15:05.371Z,4.13
2022-09-06T06:17:33.362Z,4.00
2022-09-06T06:20:01.860Z,3.92
2022-09-06T06:22:29.840Z,4.50
2022-09-06T06:24:57.837Z,4.45
2022-09-06T06:27:25.734Z,4.43
2022-09-06T06:29:55.366Z,4.07
2022-09-06T06:32:24.690Z,4.82
2022-09-06T06:34:52.834Z,4.20
2022-09-06T06:37:20.814Z,4.28
2022-09-06T06:39:48.833Z,4.38
2022-09-06T06:42:16.800Z,4.00
2022-09-06T06:44:53.866Z,4.45
2022-09-06T06:47:23.367Z,3.95
2022-09-06T06:49:52.059Z,4.28
2022-09-06T06:52:22.060Z,4.75
2022-09-06T06:54:50.325Z,4.20
2022-09-06T06:57:18.745Z,4.10
2022-09-06T06:59:46.766Z,4.40
2022-09-06T07:02:15.780Z,4.60
2022-09-06T07:04:45.371Z,4.45
2022-09-06T07:12:38.056Z,4.65
2022-09-06T07:15:06.997Z,4.88
2022-09-06T07:17:35.726Z,5.30
2022-09-06T07:20:13.766Z,4.07
2022-09-06T07:22:42.715Z,4.57
2022-09-06T07:25:14.425Z,4.90
2022-09-06T07:30:14.859Z,5.07
2022-09-06T07:32:42.845Z,5.28
2022-09-06T07:35:13.901Z,5.18
2022-09-06T07:37:42.233Z,5.15
2022-09-06T07:40:11.726Z,5.03
2022-09-06T07:42:40.015Z,4.55
2022-09-06T07:45:08.903Z,4.90
2022-09-06T07:53:15.538Z,4.80
2022-09-06T07:55:54.334Z,4.60
2022-09-06T07:58:22.851Z,5.13
2022-09-06T08:00:51.543Z,4.88
2022-09-06T08:03:20.084Z,4.82
2022-09-06T08:11:25.065Z,4.65
2022-09-06T08:13:55.849Z,5.38
2022-09-06T08:16:25.468Z,5.15
2022-09-06T08:18:54.902Z,4.93
2022-09-06T08:21:25.443Z,5.85
2022-09-06T08:23:58.044Z,6.07
2022-09-06T08:26:27.407Z,6.10
2022-09-06T08:28:57.351Z,6.65
2022-09-06T08:31:25.683Z,5.13
2022-09-06T08:33:54.951Z,6.13
2022-09-06T08:36:27.406Z,5.43
2022-09-06T08:38:56.071Z,5.88
2022-09-06T08:41:29.420Z,5.70
2022-09-06T08:46:56.786Z,5.20
2022-09-06T08:49:26.777Z,5.10
2022-09-06T08:52:23.965Z,4.97
2022-09-06T08:54:59.979Z,5.50
2022-09-06T08:57:53.792Z,5.63
2022-09-06T09:00:23.147Z,5.90
2022-09-06T09:03:04.747Z,6.50
2022-09-06T09:05:35.604Z,5.88
2022-09-06T09:08:16.073Z,6.47
2022-09-06T09:10:48.448Z,5.57
2022-09-06T09:13:26.917Z,5.65
2022-09-06T09:15:55.150Z,5.72
2022-09-06T09:18:26.720Z,6.00
2022-09-06T09:20:54.842Z,5.13
2022-09-06T09:23:24.186Z,5.47
2022-09-06T09:25:53.870Z,5.07
2022-09-06T09:28:25.081Z,5.20
2022-09-06T09:30:55.519Z,4.85
2022-09-06T09:33:29.899Z,4.00
2022-09-06T09:36:00.064Z,4.85
2022-09-06T09:38:31.714Z,4.50
2022-09-06T09:41:04.026Z,4.93
2022-09-06T09:43:37.195Z,4.80
2022-09-06T09:46:17.426Z,4.40
2022-09-06T09:49:00.893Z,4.72
2022-09-06T09:51:29.595Z,4.40
2022-09-06T09:54:00.625Z,4.47
2022-09-06T09:56:38.578Z,4.15
2022-09-06T09:59:16.918Z,4.47
2022-09-06T10:01:44.870Z,5.13
2022-09-06T10:07:13.287Z,4.43
2022-09-06T10:09:44.534Z,4.68
2022-09-06T10:12:19.402Z,4.53
2022-09-06T10:14:48.690Z,4.38
2022-09-06T10:17:21.805Z,3.60
2022-09-06T10:19:49.883Z,4.05
2022-09-06T10:22:27.411Z,4.05
2022-09-06T10:25:34.625Z,3.80
2022-09-06T10:28:25.684Z,3.25
2022-09-06T10:31:03.571Z,4.75
2022-09-06T10:33:46.864Z,4.63
2022-09-06T10:36:18.929Z,4.40
2022-09-06T10:38:54.087Z,3.45
2022-09-06T10:41:34.235Z,4.30
2022-09-06T10:44:18.182Z,3.50
2022-09-06T10:46:47.059Z,2.92
2022-09-06T10:49:18.735Z,3.10
2022-09-06T10:51:51.821Z,3.08
2022-09-06T10:54:23.131Z,2.97
2022-09-06T10:56:56.190Z,3.03
2022-09-06T10:59:38.065Z,3.20
2022-09-06T11:02:17.781Z,3.22
2022-09-06T11:10:34.473Z,3.58
2022-09-06T11:13:07.371Z,2.90
2022-09-06T11:15:45.167Z,2.53
2022-09-06T11:18:18.722Z,2.70
2022-09-06T11:20:54.699Z,2.45
2022-09-06T11:23:48.260Z,2.60
2022-09-06T11:26:32.082Z,2.47
2022-09-06T11:29:02.616Z,3.03
2022-09-06T11:34:25.122Z,2.78
2022-09-06T11:36:56.493Z,2.95
2022-09-06T11:42:41.964Z,2.88
2022-09-06T11:45:21.684Z,2.53
2022-09-06T11:47:52.735Z,2.65
2022-09-06T11:50:27.872Z,2.95
2022-09-06T11:53:15.998Z,2.65
2022-09-06T11:55:46.019Z,3.03
2022-09-06T11:58:27.610Z,2.50
2022-09-06T12:01:33.358Z,3.70
2022-09-06T12:04:09.713Z,2.75
2022-09-06T12:06:42.148Z,2.83
2022-09-06T12:09:29.648Z,2.95
2022-09-06T12:11:58.751Z,2.50
2022-09-06T12:14:33.570Z,2.78
2022-09-06T12:17:46.626Z,2.92
2022-09-06T12:20:54.572Z,2.97
2022-09-06T12:23:44.350Z,3.05
2022-09-06T12:26:13.447Z,2.92
2022-09-06T12:28:51.671Z,3.20
2022-09-06T12:31:34.965Z,3.20
2022-09-06T12:34:09.779Z,3.45
2022-09-06T12:36:49.765Z,3.63
2022-09-06T12:39:18.079Z,3.15
2022-09-06T12:41:50.296Z,3.40
2022-09-06T12:44:24.349Z,3.47
2022-09-06T12:46:53.089Z,2.78
2022-09-06T12:49:23.514Z,3.63
2022-09-06T12:52:07.457Z,3.20
2022-09-06T12:54:43.977Z,3.55
2022-09-06T12:57:19.355Z,4.22
2022-09-06T12:59:53.898Z,3.10
2022-09-06T13:02:29.675Z,3.25
2022-09-06T13:05:06.408Z,3.38
2022-09-06T13:07:40.004Z,3.28
2022-09-06T13:10:10.475Z,3.05
2022-09-06T13:12:41.405Z,3.17
2022-09-06T13:15:13.851Z,2.85
2022-09-06T13:17:42.144Z,3.00
2022-09-06T13:20:17.399Z,3.17
2022-09-06T13:22:49.287Z,3.20
2022-09-06T13:25:26.146Z,3.00
2022-09-06T13:27:58.217Z,2.72
2022-09-06T13:30:49.966Z,2.90
2022-09-06T13:33:25.819Z,2.80
2022-09-06T13:36:18.313Z,3.00
2022-09-06T13:38:48.289Z,2.47
2022-09-06T13:41:49.261Z,2.92
2022-09-06T13:44:29.604Z,3.22
2022-09-06T13:46:58.225Z,3.20
2022-09-06T13:49:27.147Z,2.92
2022-09-06T13:52:00.285Z,3.00
2022-09-06T13:54:31.324Z,2.85
2022-09-06T13:57:01.868Z,3.00
2022-09-06T13:59:31.762Z,2.70
2022-09-06T14:02:03.568Z,2.83
2022-09-06T14:04:32.571Z,2.80
2022-09-06T14:07:02.669Z,2.50
2022-09-06T14:09:33.355Z,3.40
2022-09-06T14:12:02.217Z,2.97
2022-09-06T14:14:30.560Z,2.90
2022-09-06T14:16:58.740Z,2.88
2022-09-06T14:19:27.110Z,2.75
2022-09-06T14:21:55.807Z,2.35
2022-09-06T14:24:24.409Z,2.47
2022-09-06T14:26:54.596Z,2.60
2022-09-06T14:29:22.601Z,1.92
2022-09-06T14:31:50.766Z,1.88
2022-09-06T14:34:19.261Z,2.15
2022-09-06T14:36:47.566Z,1.92
2022-09-06T14:39:16.331Z,1.90
2022-09-06T14:41:44.961Z,1.90
2022-09-06T14:44:14.890Z,1.90
2022-09-06T14:46:43.294Z,1.98
2022-09-06T14:49:11.926Z,1.67
2022-09-06T14:51:40.945Z,1.90
2022-09-06T14:54:11.490Z,2.05
2022-09-06T14:56:42.028Z,1.70
2022-09-06T14:59:15.774Z,1.90
2022-09-06T15:01:46.841Z,2.17
2022-09-06T15:04:15.984Z,1.67
2022-09-06T15:06:47.347Z,1.60
2022-09-06T15:09:16.951Z,1.88
2022-09-06T15:11:48.268Z,2.10
2022-09-06T15:14:20.823Z,1.80
2022-09-06T15:16:55.568Z,2.22
2022-09-06T15:19:24.832Z,1.85
2022-09-06T15:21:52.942Z,1.92
2022-09-06T15:24:21.268Z,1.70
2022-09-06T15:26:49.725Z,1.27
2022-09-06T15:29:20.389Z,18.88
2022-09-06T15:31:51.798Z,2.80
2022-09-06T15:34:20.671Z,3.97
2022-09-06T15:36:49.827Z,1.13
2022-09-06T15:39:18.373Z,1.40
2022-09-06T15:41:46.762Z,1.50
2022-09-06T15:44:17.007Z,1.55
2022-09-06T15:46:49.961Z,1.73
2022-09-06T15:49:24.373Z,1.55
2022-09-06T15:51:56.417Z,1.85
2022-09-06T15:54:45.150Z,1.45
2022-09-06T15:57:13.837Z,1.80
2022-09-06T15:59:42.466Z,1.20
2022-09-06T16:02:12.032Z,1.50
2022-09-06T16:04:40.566Z,1.17
2022-09-06T16:07:09.679Z,1.58
2022-09-06T16:09:40.499Z,1.10
2022-09-06T16:12:09.126Z,1.13
2022-09-06T16:14:39.028Z,1.40
2022-09-06T16:17:07.136Z,1.30
2022-09-06T16:19:36.686Z,0.85
2022-09-06T16:22:04.805Z,1.17
2022-09-06T16:24:33.419Z,1.13
2022-09-06T16:27:01.897Z,1.67
2022-09-06T16:29:30.325Z,1.23
2022-09-06T16:31:59.953Z,1.08
2022-09-06T16:34:28.570Z,2.42
2022-09-06T16:36:58.535Z,1.55
2022-09-06T16:39:26.962Z,1.75
2022-09-06T16:41:54.967Z,2.15
2022-09-06T16:44:22.920Z,1.63
2022-09-06T16:46:52.986Z,1.90
2022-09-06T16:49:21.316Z,2.00
2022-09-06T16:51:50.926Z,2.03
2022-09-06T16:54:20.954Z,2.40
2022-09-06T16:56:49.098Z,2.13
2022-09-06T16:59:17.310Z,2.17
2022-09-06T17:01:46.107Z,2.22
2022-09-06T17:04:14.987Z,2.10
2022-09-06T17:06:45.887Z,2.20
2022-09-06T17:09:15.906Z,1.92
2022-09-06T17:11:46.818Z,2.00
2022-09-06T17:14:14.837Z,2.20
2022-09-06T17:17:00.677Z,2.22
2022-09-06T17:19:29.817Z,2.00
2022-09-06T17:21:57.938Z,2.13
2022-09-06T17:24:26.735Z,2.00
2022-09-06T17:26:56.268Z,2.03
2022-09-06T17:29:26.586Z,1.95
2022-09-06T17:31:55.079Z,2.10
2022-09-06T17:34:23.116Z,2.03
2022-09-06T17:36:51.372Z,2.10
2022-09-06T17:39:21.575Z,1.70
2022-09-06T17:41:50.667Z,2.30
2022-09-06T17:44:22.273Z,2.30
2022-09-06T17:47:16.849Z,1.75
2022-09-06T17:49:39.285Z,1.70
2022-09-06T17:52:07.746Z,1.85
2022-09-06T17:54:35.882Z,1.85
2022-09-06T17:57:04.019Z,1.73
2022-09-06T17:59:35.652Z,1.52
2022-09-06T18:02:06.990Z,2.15
2022-09-06T18:04:35.407Z,2.10
2022-09-06T18:07:03.692Z,2.15
2022-09-06T18:09:31.784Z,1.80
2022-09-06T18:12:00.028Z,1.83
2022-09-06T18:14:28.532Z,1.90
2022-09-06T18:16:58.149Z,2.42
2022-09-06T18:19:27.451Z,2.03
2022-09-06T18:21:57.055Z,1.80
2022-09-06T18:24:25.677Z,2.00
2022-09-06T18:26:53.829Z,1.75
2022-09-06T18:29:22.166Z,2.10
2022-09-06T18:31:53.562Z,1.90
2022-09-06T18:34:23.321Z,2.15
2022-09-06T18:36:51.979Z,2.17
2022-09-06T18:39:20.598Z,2.20
2022-09-06T18:42:10.548Z,2.75
2022-09-06T18:44:39.413Z,2.25
2022-09-06T18:47:09.034Z,2.50
2022-09-06T18:49:43.793Z,1.90
2022-09-06T18:52:12.488Z,1.80
2022-09-06T18:54:41.619Z,2.13
2022-09-06T18:57:09.719Z,2.33
2022-09-06T18:59:37.929Z,2.17
2022-09-06T19:02:06.132Z,2.13
2022-09-06T19:04:34.225Z,2.20
2022-09-06T19:07:04.658Z,2.13
2022-09-06T19:09:32.664Z,2.05
2022-09-06T19:12:00.648Z,2.65
2022-09-06T19:14:29.061Z,2.22
2022-09-06T19:16:57.410Z,2.40
2022-09-06T19:19:25.615Z,1.95
2022-09-06T19:21:53.747Z,2.40
2022-09-06T19:24:24.544Z,1.98
2022-09-06T19:26:53.484Z,2.35
2022-09-06T19:29:22.244Z,2.33
2022-09-06T19:31:50.669Z,2.33
2022-09-06T19:34:19.420Z,2.28
2022-09-06T19:36:48.798Z,2.30
2022-09-06T19:39:17.637Z,2.45
2022-09-06T19:41:47.808Z,2.30
2022-09-06T19:44:20.721Z,2.30
2022-09-06T19:46:49.455Z,2.35
2022-09-06T19:49:19.089Z,2.55
2022-09-06T19:51:48.925Z,2.40
2022-09-06T19:54:17.797Z,2.30
2022-09-06T19:56:47.705Z,2.42
2022-09-06T19:59:17.763Z,2.30
2022-09-06T20:01:47.192Z,2.60
2022-09-06T20:04:15.700Z,2.30
2022-09-06T20:06:43.955Z,2.58
2022-09-06T20:09:13.482Z,2.45
2022-09-06T20:11:42.893Z,2.45
2022-09-06T20:14:13.173Z,2.33
2022-09-06T20:16:42.591Z,2.88
2022-09-06T20:19:12.291Z,2.38
2022-09-06T20:21:40.391Z,2.53
2022-09-06T20:24:08.747Z,2.30
2022-09-06T20:26:37.734Z,3.17
2022-09-06T20:29:06.654Z,2.75
2022-09-06T20:31:37.906Z,2.45
2022-09-06T20:34:07.409Z,2.58
2022-09-06T20:36:35.606Z,2.60
2022-09-06T20:39:03.619Z,2.53
2022-09-06T20:41:32.115Z,2.85
2022-09-06T20:44:01.312Z,2.83
2022-09-06T20:46:31.155Z,3.05
2022-09-06T20:49:04.332Z,2.47
2022-09-06T20:51:34.173Z,2.40
2022-09-06T20:54:03.753Z,2.20
2022-09-06T20:56:34.207Z,2.08
2022-09-06T20:59:04.129Z,2.30
2022-09-06T21:01:34.949Z,2.13
2022-09-06T21:04:07.974Z,2.05
2022-09-06T21:06:37.696Z,2.30
2022-09-06T21:09:08.213Z,2.33
2022-09-06T21:11:36.576Z,2.80
2022-09-06T21:14:05.234Z,2.00
2022-09-06T21:16:33.890Z,2.60
2022-09-06T21:19:04.293Z,1.92
2022-09-06T21:21:35.684Z,2.13
2022-09-06T21:24:05.606Z,2.33
2022-09-06T21:26:34.381Z,2.33
2022-09-06T21:29:03.517Z,2.40
2022-09-06T21:31:32.829Z,2.30
2022-09-06T21:34:03.796Z,2.60
2022-09-06T21:36:36.031Z,2.50
2022-09-06T21:39:09.445Z,2.33
2022-09-06T21:41:38.673Z,2.22
2022-09-06T21:44:08.272Z,2.72
2022-09-06T21:46:39.573Z,2.35
2022-09-06T21:49:09.715Z,2.25
2022-09-06T21:51:39.729Z,2.45
2022-09-06T21:54:08.585Z,2.40
2022-09-06T21:56:38.163Z,2.20
2022-09-06T21:59:07.165Z,2.35
2022-09-06T22:01:37.078Z,2.20
2022-09-06T22:04:06.206Z,1.98
2022-09-06T22:06:35.728Z,2.30
2022-09-06T22:09:07.673Z,2.53
2022-09-06T22:11:36.399Z,2.10
2022-09-06T22:14:07.469Z,2.20
2022-09-06T22:16:37.402Z,2.30
2022-09-06T22:19:06.338Z,2.40
2022-09-06T22:21:34.742Z,2.30
2022-09-06T22:24:06.285Z,2.13
2022-09-06T22:26:36.579Z,2.53
2022-09-06T22:29:06.810Z,2.30
2022-09-06T22:31:37.419Z,1.80
2022-09-06T22:34:05.651Z,2.30
2022-09-06T22:36:34.045Z,2.30
2022-09-06T22:39:02.125Z,2.47
2022-09-06T22:41:33.904Z,2.33
2022-09-06T22:44:02.854Z,2.50
2022-09-06T22:46:31.431Z,2.50
2022-09-06T22:49:00.177Z,2.60
2022-09-06T22:51:28.219Z,2.53
2022-09-06T22:53:56.235Z,2.42
2022-09-06T22:56:24.757Z,2.70
2022-09-06T22:58:54.470Z,2.38
2022-09-06T23:01:22.537Z,2.22
2022-09-06T23:03:50.659Z,2.33
2022-09-06T23:06:19.336Z,2.33
2022-09-06T23:08:47.777Z,2.50
2022-09-06T23:11:17.699Z,2.30
2022-09-06T23:13:47.114Z,2.40
2022-09-06T23:16:18.659Z,2.22
2022-09-06T23:18:47.458Z,2.63
2022-09-06T23:21:18.013Z,2.72
2022-09-06T23:23:46.934Z,2.42
2022-09-06T23:26:17.368Z,2.28
2022-09-06T23:28:46.054Z,2.40
2022-09-06T23:31:16.865Z,2.83
2022-09-06T23:33:45.266Z,2.25
2022-09-06T23:36:14.709Z,2.30
2022-09-06T23:38:43.995Z,2.45
2022-09-06T23:41:13.302Z,2.72
2022-09-06T23:43:42.909Z,2.90
2022-09-06T23:46:12.282Z,3.00
2022-09-06T23:48:42.882Z,2.97
2022-09-06T23:51:11.409Z,2.42
2022-09-06T23:53:39.915Z,2.95
2022-09-06T23:56:08.618Z,2.40
2022-09-06T23:58:37.475Z,2.28
